Time;durP1;ratioP1;P1;durP2;ratioP2;P2;SDS_P1;SDS_P2;PMS_P1;PMS_P2;Temp;Humidity;BMP_temperature;BMP_pressure;BME280_temperature;BME280_humidity;BME280_pressure;Samples;Min_cycle;Max_cycle;Signal;HPM_P1;HPM_P2
2022/12/25 00:01:31;;;;;;;;;;;;;;;16.49;39.95;95881.00;10394824;28;1827;-45
2022/12/25 00:06:41;;;;;;;;;;;;;;;16.50;39.84;95880.00;10400356;28;1917;-45
2022/12/25 00:11:41;;;;;;;;;;;;;;;16.54;39.79;95868.00;10405562;28;1958;-46
2022/12/25 00:16:41;;;;;;;;;;;;;;;16.51;39.82;95856.19;10396864;28;2084;-46
2022/12/25 00:21:46;;;;;;;;;;;;;;;16.46;40.08;95858.75;10396800;28;2130;-45
2022/12/25 00:26:46;;;;;;;;;;;;;;;16.49;39.83;95858.28;10406516;28;5029;-47
2022/12/25 00:31:47;;;;;;;;;;;;;;;16.49;39.78;95868.72;10395202;28;1974;-46
2022/12/25 00:36:49;;;;;;;;;;;;;;;16.50;39.94;95880.81;10404414;28;1716;-47
2022/12/25 00:47:08;;;;;;;;;;;;;;;16.47;39.89;95883.06;10401455;28;2061;-50
2022/12/25 00:52:08;;;;;;;;;;;;;;;16.48;39.79;95882.03;10406653;28;1941;-46
2022/12/25 00:57:08;;;;;;;;;;;;;;;16.52;39.86;95881.34;10404626;28;1855;-47
2022/12/25 01:02:24;;;;;;;;;;;;;;;16.49;39.79;95881.00;10397558;28;1961;-50
2022/12/25 01:07:24;;;;;;;;;;;;;;;16.49;39.82;95888.84;10402323;28;1918;-47
2022/12/25 01:12:24;;;;;;;;;;;;;;;16.48;39.99;95882.84;10407437;28;2041;-47
2022/12/25 01:17:25;;;;;;;;;;;;;;;16.45;39.89;95891.16;10397483;28;1990;-45
2022/12/25 01:22:25;;;;;;;;;;;;;;;16.46;39.87;95878.88;10395871;28;1930;-46
2022/12/25 01:27:25;;;;;;;;;;;;;;;16.48;39.82;95884.66;10396550;28;4982;-49
2022/12/25 01:32:25;;;;;;;;;;;;;;;16.48;39.91;95887.28;10412252;28;1887;-46
2022/12/25 01:37:26;;;;;;;;;;;;;;;16.48;39.87;95889.88;10409703;28;1910;-44
2022/12/25 01:42:26;;;;;;;;;;;;;;;16.46;39.82;95878.88;10409185;28;1599;-47
2022/12/25 01:47:26;;;;;;;;;;;;;;;16.47;39.79;95875.22;10409882;28;1926;-46
2022/12/25 01:52:26;;;;;;;;;;;;;;;16.43;39.87;95881.97;10405596;28;2078;-46
2022/12/25 01:57:29;;;;;;;;;;;;;;;16.44;39.88;95873.09;10412221;28;2044;-45
2022/12/25 02:02:29;;;;;;;;;;;;;;;16.46;39.87;95871.03;10408121;28;2083;-45
2022/12/25 02:07:31;;;;;;;;;;;;;;;16.45;39.76;95866.81;10408915;28;2051;-45
2022/12/25 02:12:31;;;;;;;;;;;;;;;16.44;39.90;95854.78;10423375;28;2002;-49
2022/12/25 02:17:35;;;;;;;;;;;;;;;16.43;39.80;95859.22;10406645;28;1991;-45
2022/12/25 02:22:53;;;;;;;;;;;;;;;16.45;39.88;95862.38;10403082;28;1965;-46
2022/12/25 02:28:00;;;;;;;;;;;;;;;16.45;39.79;95853.72;10403168;28;4994;-46
2022/12/25 02:38:22;;;;;;;;;;;;;;;16.45;39.82;95853.72;10406257;28;2049;-45
2022/12/25 03:31:52;;;;;;;;;;;;;;;16.39;39.92;95855.50;10403800;28;2118;-46
2022/12/25 03:37:13;;;;;;;;;;;;;;;16.38;40.05;95851.34;10408288;28;1970;-45
2022/12/25 04:40:53;;;;;;;;;;;;;;;16.40;39.81;95830.16;10397908;28;1913;-48
2022/12/25 04:45:53;;;;;;;;;;;;;;;16.40;39.89;95827.53;10402960;28;1980;-46
2022/12/25 04:50:55;;;;;;;;;;;;;;;16.40;39.82;95817.06;10402843;28;2097;-45
2022/12/25 04:56:01;;;;;;;;;;;;;;;16.40;39.77;95803.97;10403536;28;1965;-47
2022/12/25 05:01:02;;;;;;;;;;;;;;;16.42;39.77;95807.16;10404188;28;2146;-48
2022/12/25 05:06:02;;;;;;;;;;;;;;;16.38;39.89;95816.53;10392060;28;2028;-47
2022/12/25 05:11:06;;;;;;;;;;;;;;;16.38;39.82;95824.38;10400507;28;1941;-45
2022/12/25 05:16:07;;;;;;;;;;;;;;;16.39;39.73;95820.69;10397694;28;1929;-45
2022/12/25 05:21:10;;;;;;;;;;;;;;;16.38;39.75;95814.69;10397762;28;2001;-45
2022/12/25 05:26:10;;;;;;;;;;;;;;;16.37;39.76;95817.53;10399256;28;1964;-46
2022/12/25 05:31:11;;;;;;;;;;;;;;;16.40;39.69;95819.69;10391206;28;5176;-49
2022/12/25 05:36:11;;;;;;;;;;;;;;;16.36;39.87;95814.16;10401293;28;2033;-46
2022/12/25 05:41:11;;;;;;;;;;;;;;;16.37;39.85;95810.50;10391990;28;1999;-46
2022/12/25 05:46:12;;;;;;;;;;;;;;;16.36;39.87;95814.16;10396872;28;1910;-45
2022/12/25 05:51:19;;;;;;;;;;;;;;;16.37;39.86;95812.31;10397186;28;1876;-45
2022/12/25 05:56:19;;;;;;;;;;;;;;;16.37;39.72;95801.84;10395593;28;2042;-45
2022/12/25 06:01:26;;;;;;;;;;;;;;;16.34;39.85;95807.59;10398506;28;2045;-46
2022/12/25 06:06:27;;;;;;;;;;;;;;;16.39;39.69;95813.66;10395226;28;2074;-46
2022/12/25 06:11:27;;;;;;;;;;;;;;;16.37;39.71;95809.69;10398883;28;1921;-46
2022/12/25 06:16:27;;;;;;;;;;;;;;;16.36;40.02;95808.13;10396978;28;1891;-45
2022/12/25 06:21:28;;;;;;;;;;;;;;;16.36;39.78;95805.50;10403458;28;2096;-45
2022/12/25 06:26:28;;;;;;;;;;;;;;;16.36;39.90;95803.69;10405551;28;4884;-48
2022/12/25 06:31:36;;;;;;;;;;;;;;;16.37;39.79;95800.03;10404315;28;1894;-45
2022/12/25 06:36:37;;;;;;;;;;;;;;;16.37;39.79;95805.25;10404117;28;1965;-46
2022/12/25 06:41:37;;;;;;;;;;;;;;;16.34;39.91;95803.16;10405890;28;1971;-48
2022/12/25 06:46:43;;;;;;;;;;;;;;;16.37;39.81;95802.66;10405778;28;1973;-45
2022/12/25 06:51:44;;;;;;;;;;;;;;;16.36;39.87;95811.53;10412223;28;1894;-49
2022/12/25 06:56:44;;;;;;;;;;;;;;;16.35;39.76;95807.34;10403495;28;2016;-45
2022/12/25 07:01:48;;;;;;;;;;;;;;;16.35;39.71;95807.34;10399818;28;1934;-45
2022/12/25 07:06:49;;;;;;;;;;;;;;;16.39;39.72;95805.00;10407427;28;1946;-45
2022/12/25 07:11:49;;;;;;;;;;;;;;;16.34;39.73;95804.97;10409792;28;1827;-47
2022/12/25 07:16:49;;;;;;;;;;;;;;;16.35;39.80;95802.09;10401045;28;1863;-46
2022/12/25 07:21:49;;;;;;;;;;;;;;;16.36;39.74;95797.66;10395394;28;1902;-44
2022/12/25 07:26:50;;;;;;;;;;;;;;;16.38;39.79;95803.44;10403102;28;4437;-46
2022/12/25 07:31:50;;;;;;;;;;;;;;;16.38;39.73;95787.75;10400663;28;1882;-46
2022/12/25 07:36:55;;;;;;;;;;;;;;;16.34;39.81;95797.91;10402522;28;1965;-45
2022/12/25 07:41:56;;;;;;;;;;;;;;;16.33;39.81;95795.53;10409350;28;2058;-48
2022/12/25 07:46:56;;;;;;;;;;;;;;;16.36;39.78;95801.06;10404449;28;2085;-46
2022/12/25 07:51:57;;;;;;;;;;;;;;;16.33;39.87;95798.94;10403190;28;1999;-44
2022/12/25 07:56:57;;;;;;;;;;;;;;;16.34;39.74;95799.75;10408298;28;1899;-46
2022/12/25 08:01:57;;;;;;;;;;;;;;;16.34;39.84;95800.53;10395970;28;2132;-45
2022/12/25 08:06:57;;;;;;;;;;;;;;;16.36;39.88;95797.66;10400226;28;1967;-45
2022/12/25 08:11:58;;;;;;;;;;;;;;;16.36;39.81;95787.19;10401450;28;1945;-45
2022/12/25 08:16:58;;;;;;;;;;;;;;;16.37;39.75;95788.75;10400042;28;1846;-45
2022/12/25 08:22:02;;;;;;;;;;;;;;;16.42;39.75;95786.22;10397210;28;1953;-48
2022/12/25 08:27:07;;;;;;;;;;;;;;;16.39;39.93;95794.53;10409823;28;4419;-45
2022/12/25 08:32:07;;;;;;;;;;;;;;;16.45;39.77;95796.97;10397254;28;2090;-46
2022/12/25 08:37:07;;;;;;;;;;;;;;;16.41;39.93;95795.09;10408207;28;1953;-45
2022/12/25 08:42:08;;;;;;;;;;;;;;;16.45;39.84;95785.72;10396855;28;1910;-48
2022/12/25 08:47:08;;;;;;;;;;;;;;;16.46;39.88;95785.47;10393941;28;2055;-45
2022/12/25 08:52:09;;;;;;;;;;;;;;;16.46;39.95;95787.31;10401524;28;1957;-45
2022/12/25 08:57:09;;;;;;;;;;;;;;;16.47;40.05;95779.19;10398104;28;1969;-45
2022/12/25 09:02:09;;;;;;;;;;;;;;;16.56;39.87;95776.97;10400301;28;1973;-45
2022/12/25 09:07:10;;;;;;;;;;;;;;;16.56;39.90;95767.28;10396786;28;1984;-45
2022/12/25 09:12:10;;;;;;;;;;;;;;;16.50;40.11;95763.06;10397904;28;1870;-45
2022/12/25 09:17:11;;;;;;;;;;;;;;;16.58;39.96;95762.59;10388841;28;1974;-45
2022/12/25 09:22:11;;;;;;;;;;;;;;;16.62;40.02;95765.50;10397560;28;2018;-46
2022/12/25 09:27:12;;;;;;;;;;;;;;;16.64;40.07;95753.75;10391084;28;4424;-46
2022/12/25 09:32:12;;;;;;;;;;;;;;;16.67;40.25;95752.47;10416806;28;1890;-49
2022/12/25 09:37:12;;;;;;;;;;;;;;;16.68;40.08;95762.69;10403444;28;1931;-45
2022/12/25 09:42:18;;;;;;;;;;;;;;;16.65;40.03;95757.94;10392446;28;1972;-45
2022/12/25 09:47:25;;;;;;;;;;;;;;;16.68;40.15;95751.44;10396826;28;1962;-45
2022/12/25 09:52:34;;;;;;;;;;;;;;;16.65;40.23;95744.09;10397943;28;1962;-45
2022/12/25 09:57:34;;;;;;;;;;;;;;;16.67;40.25;95739.41;10406339;28;2017;-50
2022/12/25 10:02:35;;;;;;;;;;;;;;;16.66;40.37;95740.41;10402408;28;1995;-48
2022/12/25 10:07:54;;;;;;;;;;;;;;;16.65;40.26;95754.56;10398043;28;2063;-47
2022/12/25 10:13:03;;;;;;;;;;;;;;;16.63;40.40;95752.16;10406765;28;2031;-45
2022/12/25 10:18:04;;;;;;;;;;;;;;;16.64;40.45;95742.50;10396887;28;2204;-47
2022/12/25 10:23:06;;;;;;;;;;;;;;;16.63;40.58;95744.31;10404495;28;1965;-46
2022/12/25 10:28:14;;;;;;;;;;;;;;;16.65;40.50;95739.63;10417858;28;4392;-48
2022/12/25 10:33:20;;;;;;;;;;;;;;;16.66;40.50;95732.56;10404463;28;1932;-46
2022/12/25 10:38:21;;;;;;;;;;;;;;;16.67;40.49;95716.59;10390954;28;2106;-46
2022/12/25 10:43:25;;;;;;;;;;;;;;;16.67;40.48;95700.13;10405454;28;1952;-46
2022/12/25 10:48:29;;;;;;;;;;;;;;;16.65;40.68;95702.22;10402327;28;1997;-45
2022/12/25 10:53:35;;;;;;;;;;;;;;;16.66;40.68;95690.69;10416095;28;2084;-45
2022/12/25 10:58:35;;;;;;;;;;;;;;;16.63;40.67;95689.34;10406854;28;1954;-46
2022/12/25 11:03:37;;;;;;;;;;;;;;;16.62;40.70;95677.31;10400774;28;2065;-45
2022/12/25 11:08:37;;;;;;;;;;;;;;;16.61;40.71;95677.59;10397761;28;2124;-46
2022/12/25 11:13:38;;;;;;;;;;;;;;;16.62;40.82;95687.78;10403246;28;1946;-46
2022/12/25 11:18:44;;;;;;;;;;;;;;;16.63;40.82;95683.34;10401608;28;1941;-46
2022/12/25 11:23:45;;;;;;;;;;;;;;;16.65;40.83;95668.19;10399142;28;1921;-45
2022/12/25 11:28:46;;;;;;;;;;;;;;;16.64;41.00;95664.78;10403651;28;4385;-46
2022/12/25 11:33:49;;;;;;;;;;;;;;;16.62;41.10;95660.81;10401861;28;2102;-45
2022/12/25 11:38:49;;;;;;;;;;;;;;;16.64;41.05;95658.75;10400776;28;1953;-45
2022/12/25 11:43:52;;;;;;;;;;;;;;;16.66;40.87;95649.63;10399461;28;1998;-44
2022/12/25 11:48:56;;;;;;;;;;;;;;;16.65;41.01;95642.78;10398653;28;2082;-45
2022/12/25 11:54:19;;;;;;;;;;;;;;;16.67;41.00;95643.31;10414401;28;1903;-45
2022/12/25 11:59:30;;;;;;;;;;;;;;;16.68;40.93;95623.19;10390237;28;1992;-45
2022/12/25 12:04:39;;;;;;;;;;;;;;;16.71;41.02;95627.94;10400917;28;1957;-45
2022/12/25 12:09:43;;;;;;;;;;;;;;;16.70;40.93;95613.25;10403698;28;1910;-45
2022/12/25 12:14:44;;;;;;;;;;;;;;;16.69;41.08;95609.06;10422328;28;1960;-48
2022/12/25 12:19:44;;;;;;;;;;;;;;;16.69;41.07;95609.84;10399364;28;1997;-46
2022/12/25 12:24:51;;;;;;;;;;;;;;;16.71;41.15;95602.53;10396229;28;1905;-45
2022/12/25 12:29:56;;;;;;;;;;;;;;;16.76;41.02;95589.47;10400649;28;1975;-45
2022/12/25 12:34:56;;;;;;;;;;;;;;;16.75;40.92;95592.34;10387248;28;2439;-45
2022/12/25 12:39:56;;;;;;;;;;;;;;;16.74;41.04;95577.69;10396400;28;2169;-45
2022/12/25 12:44:57;;;;;;;;;;;;;;;16.75;41.05;95571.41;10398713;28;1843;-47
2022/12/25 12:49:57;;;;;;;;;;;;;;;16.72;41.19;95569.28;10404328;28;1966;-46
2022/12/25 12:55:05;;;;;;;;;;;;;;;16.71;41.19;95571.13;10395902;28;2029;-45
2022/12/25 13:00:16;;;;;;;;;;;;;;;16.73;41.10;95563.78;10398707;28;1816;-46
2022/12/25 13:05:23;;;;;;;;;;;;;;;16.76;41.04;95562.50;10410111;28;2034;-45
2022/12/25 13:10:24;;;;;;;;;;;;;;;16.77;41.11;95559.66;10415405;28;1973;-46
2022/12/25 13:15:26;;;;;;;;;;;;;;;16.74;41.12;95562.78;10407664;28;1931;-46
2022/12/25 13:20:45;;;;;;;;;;;;;;;16.76;41.26;95570.38;10393335;28;1921;-44
2022/12/25 13:25:50;;;;;;;;;;;;;;;16.74;41.33;95565.38;10395452;28;1945;-45
2022/12/25 13:30:51;;;;;;;;;;;;;;;16.74;41.64;95551.50;10400138;28;4475;-45
2022/12/25 13:35:51;;;;;;;;;;;;;;;16.74;41.66;95533.19;10414054;28;2105;-45
2022/12/25 13:46:11;;;;;;;;;;;;;;;16.77;41.70;95535.31;10425793;28;1986;-45
2022/12/25 13:51:13;;;;;;;;;;;;;;;16.86;41.09;95541.63;10394075;28;1953;-45
2022/12/25 13:56:14;;;;;;;;;;;;;;;16.83;41.06;95552.63;10407384;28;1957;-45
2022/12/25 14:01:14;;;;;;;;;;;;;;;16.87;41.18;95553.69;10398554;28;2032;-46
2022/12/25 14:06:19;;;;;;;;;;;;;;;16.77;41.79;95557.03;10405744;28;1965;-45
2022/12/25 14:11:20;;;;;;;;;;;;;;;16.77;41.79;95553.63;10399279;28;2173;-45
2022/12/25 14:16:20;;;;;;;;;;;;;;;16.80;41.46;95542.63;10405980;28;2072;-45
2022/12/25 14:21:28;;;;;;;;;;;;;;;16.79;41.39;95547.09;10406396;28;2018;-45
2022/12/25 14:26:29;;;;;;;;;;;;;;;16.81;41.25;95531.13;10403593;28;4496;-45
2022/12/25 14:31:29;;;;;;;;;;;;;;;16.77;41.19;95551.00;10401507;28;2116;-46
2022/12/25 14:36:30;;;;;;;;;;;;;;;16.80;41.13;95555.72;10401708;28;2030;-48
2022/12/25 14:41:36;;;;;;;;;;;;;;;16.74;41.25;95549.69;10398332;28;1898;-45
2022/12/25 14:46:37;;;;;;;;;;;;;;;16.75;41.15;95555.72;10397613;28;1961;-46
2022/12/25 14:51:37;;;;;;;;;;;;;;;16.71;41.07;95549.41;10401745;28;1917;-45
2022/12/25 14:56:38;;;;;;;;;;;;;;;16.73;41.16;95558.56;10402646;28;1842;-45
2022/12/25 15:01:53;;;;;;;;;;;;;;;16.72;41.13;95562.25;10402009;28;2089;-45
2022/12/25 15:06:54;;;;;;;;;;;;;;;16.72;40.99;95551.78;10407079;28;1970;-46
2022/12/25 15:11:54;;;;;;;;;;;;;;;16.71;41.00;95554.66;10392651;28;2030;-45
2022/12/25 15:16:56;;;;;;;;;;;;;;;16.73;41.01;95545.47;10398685;28;2042;-46
2022/12/25 15:21:57;;;;;;;;;;;;;;;16.70;40.99;95553.84;10399352;28;2048;-45
2022/12/25 15:26:59;;;;;;;;;;;;;;;16.70;40.99;95547.81;10404010;28;4527;-45
2022/12/25 15:31:59;;;;;;;;;;;;;;;16.66;40.99;95538.91;10393055;28;2452;-45
2022/12/25 15:36:59;;;;;;;;;;;;;;;16.74;40.84;95554.13;10393949;28;1898;-45
2022/12/25 15:42:12;;;;;;;;;;;;;;;16.68;40.90;95550.69;10400264;28;2102;-45
2022/12/25 15:47:12;;;;;;;;;;;;;;;16.69;40.91;95559.34;10402106;28;1981;-49
2022/12/25 15:52:13;;;;;;;;;;;;;;;16.71;40.90;95554.66;10398627;28;1923;-45
2022/12/25 15:57:17;;;;;;;;;;;;;;;16.66;40.87;95552.00;10402943;28;1941;-45
2022/12/25 16:02:18;;;;;;;;;;;;;;;16.65;40.95;95556.44;10392652;28;1974;-46
2022/12/25 16:07:19;;;;;;;;;;;;;;;16.69;40.82;95549.66;10400733;28;1968;-46
2022/12/25 16:12:19;;;;;;;;;;;;;;;16.67;40.82;95569.28;10397159;28;1894;-46
2022/12/25 16:17:19;;;;;;;;;;;;;;;16.71;40.72;95557.25;10402239;28;1997;-47
2022/12/25 16:22:21;;;;;;;;;;;;;;;16.70;40.78;95553.84;10394800;28;2136;-44
2022/12/25 16:27:22;;;;;;;;;;;;;;;16.71;40.74;95554.66;10396399;28;4420;-45
2022/12/25 16:32:22;;;;;;;;;;;;;;;16.66;40.83;95559.84;10391739;28;2050;-46
2022/12/25 16:37:23;;;;;;;;;;;;;;;16.69;40.73;95561.97;10396311;28;1947;-45
2022/12/25 16:42:23;;;;;;;;;;;;;;;16.68;40.69;95571.63;10398313;28;2033;-47
2022/12/25 16:47:23;;;;;;;;;;;;;;;16.68;40.75;95576.88;10398225;28;2050;-45
2022/12/25 16:52:23;;;;;;;;;;;;;;;16.64;40.81;95567.16;10397767;28;1922;-46
2022/12/25 16:57:24;;;;;;;;;;;;;;;16.65;40.79;95566.13;10399942;28;2038;-46
2022/12/25 17:02:24;;;;;;;;;;;;;;;16.63;40.65;95574.22;10396502;28;2053;-45
2022/12/25 17:07:24;;;;;;;;;;;;;;;16.63;40.81;95568.22;10396222;28;1910;-45
2022/12/25 17:12:24;;;;;;;;;;;;;;;16.61;40.86;95580.75;10399231;28;2029;-44
2022/12/25 17:17:25;;;;;;;;;;;;;;;16.64;40.71;95573.19;10396365;28;1962;-45
2022/12/25 17:22:25;;;;;;;;;;;;;;;16.62;40.80;95571.84;10398741;28;1918;-45
2022/12/25 17:27:25;;;;;;;;;;;;;;;16.59;40.83;95569.75;10396988;28;4476;-49
2022/12/25 17:32:25;;;;;;;;;;;;;;;16.62;40.78;95553.53;10396828;28;1970;-46
2022/12/25 17:37:26;;;;;;;;;;;;;;;16.63;40.78;95557.75;10389648;28;1910;-47
2022/12/25 17:42:28;;;;;;;;;;;;;;;16.63;40.75;95557.75;10397525;28;1921;-46
2022/12/25 17:47:28;;;;;;;;;;;;;;;16.66;40.63;95562.47;10396362;28;1982;-45
2022/12/25 17:52:29;;;;;;;;;;;;;;;16.65;40.71;95561.66;10399749;28;1910;-45
2022/12/25 17:57:29;;;;;;;;;;;;;;;16.64;40.78;95561.91;10392887;28;2141;-45
2022/12/25 18:02:30;;;;;;;;;;;;;;;16.68;40.61;95563.78;10387280;28;2072;-45
2022/12/25 18:07:30;;;;;;;;;;;;;;;16.59;40.74;95577.59;10397784;28;2055;-46
2022/12/25 18:12:30;;;;;;;;;;;;;;;16.63;40.69;95574.22;10415859;28;2105;-46
2022/12/25 18:17:31;;;;;;;;;;;;;;;16.60;40.74;95582.59;10400222;28;1982;-46
2022/12/25 18:22:32;;;;;;;;;;;;;;;16.60;40.80;95597.50;10397017;28;1902;-44
2022/12/25 18:27:32;;;;;;;;;;;;;;;16.54;40.91;95601.91;10399907;28;4397;-45
2022/12/25 18:32:33;;;;;;;;;;;;;;;16.61;40.78;95604.31;10401377;28;1998;-46
2022/12/25 18:37:33;;;;;;;;;;;;;;;16.61;40.75;95606.94;10397263;28;1977;-47
2022/12/25 18:42:39;;;;;;;;;;;;;;;16.62;40.71;95611.09;10406097;28;1973;-45
2022/12/25 18:47:40;;;;;;;;;;;;;;;16.60;40.76;95613.19;10401354;28;2058;-48
2022/12/25 18:52:41;;;;;;;;;;;;;;;16.64;40.67;95611.66;10402228;28;1979;-45
2022/12/25 18:57:42;;;;;;;;;;;;;;;16.63;40.66;95620.56;10400015;28;1972;-45
2022/12/25 19:02:42;;;;;;;;;;;;;;;16.54;40.96;95622.03;10396464;28;1971;-46
2022/12/25 19:07:43;;;;;;;;;;;;;;;16.61;40.76;95625.25;10401809;28;2151;-45
2022/12/25 19:12:45;;;;;;;;;;;;;;;16.53;40.81;95621.25;10390565;28;1886;-45
2022/12/25 19:17:45;;;;;;;;;;;;;;;16.61;40.71;95618.16;10400157;28;2101;-45
2022/12/25 19:22:46;;;;;;;;;;;;;;;16.52;40.84;95603.97;10401603;28;1960;-44
2022/12/25 19:27:46;;;;;;;;;;;;;;;16.58;40.90;95615.25;10404321;28;4516;-46
2022/12/25 19:32:46;;;;;;;;;;;;;;;16.69;40.47;95620.31;10400152;28;2026;-47
2022/12/25 19:37:47;;;;;;;;;;;;;;;16.58;40.78;95628.34;10394144;28;1938;-48
2022/12/25 19:42:47;;;;;;;;;;;;;;;16.59;40.79;95635.19;10390276;28;1981;-48
2022/12/25 19:47:48;;;;;;;;;;;;;;;16.59;40.79;95619.47;10395701;28;2070;-45
2022/12/25 19:52:48;;;;;;;;;;;;;;;16.54;40.83;95632.50;10401052;28;2042;-45
2022/12/25 19:57:48;;;;;;;;;;;;;;;16.61;40.76;95620.00;10405687;28;1918;-47
2022/12/25 20:02:48;;;;;;;;;;;;;;;16.64;40.66;95622.13;10395067;28;2020;-45
2022/12/25 20:07:49;;;;;;;;;;;;;;;16.62;40.64;95618.97;10401128;28;2101;-45
2022/12/25 20:12:49;;;;;;;;;;;;;;;16.54;40.93;95608.97;10406045;28;1741;-47
2022/12/25 20:17:49;;;;;;;;;;;;;;;16.56;40.60;95609.50;10398525;28;1970;-47
2022/12/25 20:22:52;;;;;;;;;;;;;;;16.53;40.83;95630.91;10389655;28;1949;-45
2022/12/25 20:27:53;;;;;;;;;;;;;;;16.62;40.59;95632.84;10393650;28;4516;-45
2022/12/25 20:32:54;;;;;;;;;;;;;;;16.59;40.75;95629.94;10401846;28;2082;-48
2022/12/25 20:38:04;;;;;;;;;;;;;;;16.60;40.74;95639.34;10389252;28;2013;-45
2022/12/25 20:43:04;;;;;;;;;;;;;;;16.57;40.74;95642.50;10400658;28;1882;-44
2022/12/25 20:48:05;;;;;;;;;;;;;;;16.63;40.52;95650.09;10400654;28;1969;-47
2022/12/25 20:53:05;;;;;;;;;;;;;;;16.57;40.66;95645.88;10392716;28;1886;-46
2022/12/25 20:58:05;;;;;;;;;;;;;;;16.51;40.90;95646.06;10397694;28;2187;-46
2022/12/25 21:03:05;;;;;;;;;;;;;;;16.60;40.73;95655.06;10393714;28;1846;-46
2022/12/25 21:08:06;;;;;;;;;;;;;;;16.50;40.85;95658.41;10400018;28;2066;-47
2022/12/25 21:13:06;;;;;;;;;;;;;;;16.60;40.68;95653.25;10396095;28;1879;-44
2022/12/25 21:18:06;;;;;;;;;;;;;;;16.61;40.66;95659.28;10394858;28;1989;-44
2022/12/25 21:23:06;;;;;;;;;;;;;;;16.61;40.59;95659.28;10397605;28;1945;-46
2022/12/25 21:28:07;;;;;;;;;;;;;;;16.63;40.48;95665.81;10389899;28;4528;-48
2022/12/25 21:38:27;;;;;;;;;;;;;;;16.53;40.76;95684.03;10410956;28;1965;-46
2022/12/25 21:43:27;;;;;;;;;;;;;;;16.54;40.75;95697.94;10397951;28;1926;-45
2022/12/25 21:48:31;;;;;;;;;;;;;;;16.54;40.72;95705.78;10410446;28;2034;-44
2022/12/25 21:53:31;;;;;;;;;;;;;;;16.53;40.76;95699.75;10404056;28;2045;-45
2022/12/25 21:58:31;;;;;;;;;;;;;;;16.59;40.54;95713.69;10402665;28;1973;-45
2022/12/25 22:03:32;;;;;;;;;;;;;;;16.55;40.74;95716.00;10396004;28;2058;-46
2022/12/25 22:08:32;;;;;;;;;;;;;;;16.55;40.69;95712.59;10403819;28;1906;-47
2022/12/25 22:24:13;;;;;;;;;;;;;;;16.51;40.79;95732.41;10408217;28;1930;-47
2022/12/25 22:29:13;;;;;;;;;;;;;;;16.55;40.60;95733.53;10400510;28;4298;-45
2022/12/25 22:34:14;;;;;;;;;;;;;;;16.59;40.71;95729.38;10411336;28;1894;-46
2022/12/25 22:39:18;;;;;;;;;;;;;;;16.50;40.73;95718.56;10407849;28;1877;-50
2022/12/25 22:44:21;;;;;;;;;;;;;;;16.59;40.59;95721.53;10405503;28;1958;-44
2022/12/25 22:49:22;;;;;;;;;;;;;;;16.48;40.74;95730.28;10405740;28;2120;-46
2022/12/25 22:54:23;;;;;;;;;;;;;;;16.55;40.56;95723.06;10404752;28;2028;-48
2022/12/25 22:59:23;;;;;;;;;;;;;;;16.54;40.64;95724.09;10398675;28;2065;-48
2022/12/25 23:04:23;;;;;;;;;;;;;;;16.48;40.83;95719.81;10388424;28;2002;-45
2022/12/25 23:09:26;;;;;;;;;;;;;;;16.51;40.69;95732.41;10395293;28;1969;-46
2022/12/25 23:14:39;;;;;;;;;;;;;;;16.50;40.78;95725.63;10398587;28;1948;-45
2022/12/25 23:30:32;;;;;;;;;;;;;;;16.48;40.76;95727.66;10401306;28;4484;-48
2022/12/25 23:35:32;;;;;;;;;;;;;;;16.53;40.52;95731.16;10400935;28;2080;-48
2022/12/25 23:40:32;;;;;;;;;;;;;;;16.50;40.63;95731.66;10406840;28;1763;-45
2022/12/25 23:45:32;;;;;;;;;;;;;;;16.60;40.41;95739.59;10400019;28;2086;-44
2022/12/25 23:50:33;;;;;;;;;;;;;;;16.52;40.64;95739.25;10393390;28;1955;-46
2022/12/25 23:55:33;;;;;;;;;;;;;;;16.51;40.64;95735.03;10405270;28;1898;-44
